createdAt,value
2018-04-18T17:59:09.436Z,2.93
2018-04-18T18:01:43.068Z,3.07
2018-04-18T18:04:16.624Z,3.33
2018-04-18T18:06:50.385Z,3.63
2018-04-18T18:09:24.084Z,2.80
2018-04-18T18:11:57.783Z,2.90
2018-04-18T18:14:31.393Z,2.93
2018-04-18T18:17:04.976Z,3.87
2018-04-18T18:19:38.796Z,2.73
2018-04-18T18:22:12.394Z,3.33
2018-04-18T18:24:45.883Z,3.50
2018-04-18T18:27:19.600Z,5.20
2018-04-18T18:29:53.387Z,6.17
2018-04-18T18:32:26.868Z,6.50
2018-04-18T18:35:00.703Z,6.40
2018-04-18T18:37:34.262Z,8.03
2018-04-18T18:40:07.804Z,9.10
2018-04-18T18:42:41.388Z,8.97
2018-04-18T18:45:15.093Z,10.30
2018-04-18T18:47:48.688Z,10.03
2018-04-18T18:50:22.211Z,10.43
2018-04-18T18:52:55.771Z,11.13
2018-04-18T18:55:29.584Z,10.07
2018-04-18T18:58:03.333Z,10.00
2018-04-18T19:00:36.215Z,10.07
2018-04-18T19:03:09.808Z,11.20
2018-04-18T19:05:43.536Z,12.37
2018-04-18T19:08:17.061Z,12.27
2018-04-18T19:10:51.021Z,12.50
2018-04-18T19:13:24.728Z,11.77
2018-04-18T19:15:58.520Z,12.93
2018-04-18T19:18:32.101Z,12.77
2018-04-18T19:21:05.681Z,11.77
2018-04-18T19:23:39.181Z,12.20
2018-04-18T19:26:12.712Z,12.33
2018-04-18T19:28:46.369Z,11.97
2018-04-18T19:31:20.119Z,11.90
2018-04-18T19:33:53.683Z,12.07
2018-04-18T19:36:27.303Z,10.90
2018-04-18T19:39:00.858Z,13.30
2018-04-18T19:41:34.603Z,12.13
2018-04-18T19:44:08.099Z,11.93
2018-04-18T19:46:41.619Z,11.77
2018-04-18T19:49:15.164Z,11.10
2018-04-18T19:51:48.820Z,11.03
2018-04-18T19:54:22.498Z,11.53
2018-04-18T19:56:56.305Z,10.83
2018-04-18T19:59:30.079Z,11.67
2018-04-18T20:02:03.908Z,11.57
2018-04-18T20:04:37.456Z,11.77
2018-04-18T20:07:11.092Z,11.03
2018-04-18T20:09:44.823Z,10.83
2018-04-18T20:12:18.587Z,9.97
2018-04-18T20:14:52.400Z,10.37
2018-04-18T20:17:26.168Z,10.43
2018-04-18T20:19:59.752Z,11.03
2018-04-18T20:22:33.569Z,10.13
2018-04-18T20:25:07.346Z,11.03
2018-04-18T20:27:41.084Z,9.90
2018-04-18T20:30:14.688Z,11.73
2018-04-18T20:32:48.323Z,10.57
2018-04-18T20:35:21.924Z,10.63
2018-04-18T20:37:55.748Z,10.93
2018-04-18T20:40:29.286Z,11.23
2018-04-18T20:43:03.056Z,11.27
2018-04-18T20:45:36.581Z,11.47
2018-04-18T20:48:10.140Z,10.77
2018-04-18T20:50:43.773Z,10.37
2018-04-18T20:53:17.448Z,10.50
2018-04-18T20:55:50.945Z,9.90
2018-04-18T20:58:24.468Z,9.13
2018-04-18T21:00:57.972Z,10.27
2018-04-18T21:03:31.539Z,9.23
2018-04-18T21:06:05.057Z,9.90
2018-04-18T21:08:38.660Z,9.07
2018-04-18T21:11:12.206Z,8.80
2018-04-18T21:13:45.826Z,8.23
2018-04-18T21:16:19.464Z,7.87
2018-04-18T21:18:52.975Z,8.03
2018-04-18T21:21:26.572Z,6.80
2018-04-18T21:24:00.123Z,5.60
2018-04-18T21:26:33.921Z,6.10
2018-04-18T21:29:07.497Z,6.03
2018-04-18T21:31:41.283Z,5.77
2018-04-18T21:34:14.868Z,5.97
2018-04-18T21:36:48.390Z,6.10
2018-04-18T21:39:22.023Z,5.90
2018-04-18T21:41:55.632Z,5.33
2018-04-18T21:44:29.350Z,4.83
2018-04-18T21:47:03.030Z,5.47
2018-04-18T21:49:36.712Z,5.20
2018-04-18T21:52:10.256Z,4.50
2018-04-18T21:54:43.861Z,5.00
2018-04-18T21:57:17.624Z,4.90
2018-04-18T21:59:51.321Z,4.70
2018-04-18T22:02:24.911Z,3.93
2018-04-18T22:04:58.644Z,3.90
2018-04-18T22:07:32.727Z,3.90
2018-04-18T22:10:06.419Z,4.00
2018-04-18T22:12:40.124Z,4.10
2018-04-18T22:15:13.716Z,4.10
2018-04-18T22:17:47.476Z,3.77
2018-04-18T22:20:21.160Z,3.70
2018-04-18T22:22:54.769Z,3.90
2018-04-18T22:25:28.467Z,3.80
2018-04-18T22:28:02.056Z,3.80
2018-04-18T22:30:35.761Z,3.77
2018-04-18T22:33:09.668Z,3.60
2018-04-18T22:35:43.427Z,3.70
2018-04-18T22:38:17.080Z,2.97
2018-04-18T22:40:50.621Z,3.57
2018-04-18T22:43:24.337Z,3.77
2018-04-18T22:45:57.824Z,3.67
2018-04-18T22:48:31.617Z,3.60
2018-04-18T22:51:05.304Z,3.30
2018-04-18T22:53:38.909Z,3.27
2018-04-18T22:56:12.457Z,3.03
2018-04-18T22:58:46.207Z,3.30
2018-04-18T23:01:19.763Z,3.00
2018-04-18T23:03:53.713Z,3.67
2018-04-18T23:06:27.324Z,3.63
2018-04-18T23:09:00.992Z,3.10
2018-04-18T23:11:34.528Z,3.77
2018-04-18T23:14:08.348Z,3.50
2018-04-18T23:16:41.907Z,3.20
2018-04-18T23:19:15.937Z,3.00
2018-04-18T23:21:49.717Z,3.30
2018-04-18T23:24:23.486Z,3.40
2018-04-18T23:26:57.028Z,3.00
2018-04-18T23:29:30.527Z,3.53
2018-04-18T23:32:04.204Z,3.30
2018-04-18T23:34:37.978Z,3.10
2018-04-18T23:37:11.583Z,3.20
2018-04-18T23:39:45.407Z,3.30
2018-04-18T23:42:18.939Z,3.30
2018-04-18T23:44:52.704Z,3.53
2018-04-18T23:47:26.375Z,3.20
2018-04-18T23:50:00.048Z,3.50
2018-04-18T23:52:33.628Z,3.10
2018-04-18T23:55:07.428Z,2.97
2018-04-18T23:57:41.027Z,2.90
